createdAt,value
2023-02-03T00:01:49.619Z,99383.19
2023-02-03T00:04:16.149Z,99390.50
2023-02-03T00:06:42.743Z,99385.50
2023-02-03T00:09:09.422Z,99379.91
2023-02-03T00:11:36.081Z,99380.88
2023-02-03T00:14:03.434Z,99390.78
2023-02-03T00:16:29.927Z,99376.72
2023-02-03T00:18:56.347Z,99390.78
2023-02-03T00:21:22.854Z,99401.75
2023-02-03T00:23:49.223Z,99380.22
2023-02-03T00:26:17.315Z,99386.50
2023-02-03T00:28:44.938Z,99394.78
2023-02-03T00:31:19.199Z,99370.25
2023-02-03T00:33:46.507Z,99390.13
2023-02-03T00:36:13.380Z,99388.78
2023-02-03T00:38:39.888Z,99380.19
2023-02-03T00:41:07.008Z,99371.09
2023-02-03T00:43:33.518Z,99362.31
2023-02-03T00:46:00.344Z,99334.03
2023-02-03T00:48:26.967Z,99351.22
2023-02-03T00:50:53.516Z,99329.06
2023-02-03T00:53:19.944Z,99365.78
2023-02-03T00:55:47.100Z,99350.06
2023-02-03T00:58:13.496Z,99364.63
2023-02-03T01:00:39.981Z,99364.97
2023-02-03T01:03:06.700Z,99376.38
2023-02-03T01:05:33.254Z,99341.50
2023-02-03T01:08:00.979Z,99364.97
2023-02-03T01:10:29.139Z,99374.59
2023-02-03T01:12:56.195Z,99348.75
2023-02-03T01:15:22.653Z,99361.00
2023-02-03T01:17:49.103Z,99358.72
2023-02-03T01:20:17.640Z,99349.59
2023-02-03T01:22:44.138Z,99362.97
2023-02-03T01:25:10.895Z,99338.34
2023-02-03T01:27:37.457Z,99333.38
2023-02-03T01:30:04.521Z,99329.06
2023-02-03T01:32:31.003Z,99313.00
2023-02-03T01:34:57.474Z,99305.59
2023-02-03T01:37:23.958Z,99286.03
2023-02-03T01:39:50.390Z,99273.31
2023-02-03T01:42:16.800Z,99278.94
2023-02-03T01:44:44.969Z,99260.06
2023-02-03T01:47:36.456Z,99269.31
2023-02-03T01:50:11.381Z,99273.97
2023-02-03T01:52:40.729Z,99279.28
2023-02-03T01:55:10.736Z,99294.50
2023-02-03T01:57:47.159Z,99288.22
2023-02-03T02:00:14.696Z,99279.78
2023-02-03T02:02:44.854Z,99291.53
2023-02-03T02:05:22.605Z,99258.09
2023-02-03T02:07:49.746Z,99282.41
2023-02-03T02:10:16.605Z,99273.97
2023-02-03T02:12:43.273Z,99261.06
2023-02-03T02:15:10.299Z,99274.97
2023-02-03T02:18:13.252Z,99281.25
2023-02-03T02:21:11.694Z,99283.25
2023-02-03T02:24:12.733Z,99282.22
2023-02-03T02:26:48.106Z,99272.16
2023-02-03T02:29:49.194Z,99252.13
2023-02-03T02:32:36.784Z,99261.91
2023-02-03T02:35:16.893Z,99262.22
2023-02-03T02:37:49.140Z,99258.41
2023-02-03T02:40:32.935Z,99249.66
2023-02-03T02:43:08.742Z,99260.41
2023-02-03T02:45:50.967Z,99265.72
2023-02-03T02:48:26.711Z,99248.50
2023-02-03T02:50:56.404Z,99246.19
2023-02-03T02:53:26.689Z,99218.44
2023-02-03T02:55:57.029Z,99259.44
2023-02-03T02:58:24.760Z,99277.31
2023-02-03T03:00:51.576Z,99296.16
2023-02-03T03:03:23.935Z,99285.22
2023-02-03T03:06:08.040Z,99304.44
2023-02-03T03:09:00.232Z,99303.09
2023-02-03T03:11:31.394Z,99312.00
2023-02-03T03:13:59.733Z,99307.03
2023-02-03T03:16:30.543Z,99302.75
2023-02-03T03:19:01.856Z,99325.75
2023-02-03T03:21:37.745Z,99327.88
2023-02-03T03:24:08.735Z,99330.91
2023-02-03T03:27:14.156Z,99355.72
2023-02-03T03:30:02.525Z,99366.63
2023-02-03T03:32:32.937Z,99357.69
2023-02-03T03:35:01.747Z,99337.69
2023-02-03T03:37:35.725Z,99366.63
2023-02-03T03:40:24.036Z,99355.22
2023-02-03T03:42:57.209Z,99357.84
2023-02-03T03:45:29.496Z,99342.16
2023-02-03T03:48:18.581Z,99324.25
2023-02-03T03:50:51.436Z,99312.84
2023-02-03T03:53:19.729Z,99297.47
2023-02-03T03:55:51.423Z,99312.19
2023-02-03T03:58:25.528Z,99308.53
2023-02-03T04:00:54.331Z,99299.41
2023-02-03T04:03:25.439Z,99305.06
2023-02-03T04:05:53.195Z,99302.56
2023-02-03T04:08:19.661Z,99289.66
2023-02-03T04:10:46.419Z,99273.81
2023-02-03T04:13:12.948Z,99300.25
2023-02-03T04:15:39.347Z,99296.81
2023-02-03T04:18:06.552Z,99313.16
2023-02-03T04:20:33.499Z,99316.00
2023-02-03T04:23:00.508Z,99310.19
2023-02-03T04:25:27.317Z,99308.06
2023-02-03T04:27:55.261Z,99292.19
2023-02-03T04:30:21.916Z,99297.13
2023-02-03T04:32:48.977Z,99285.56
2023-02-03T04:35:15.401Z,99295.97
2023-02-03T04:37:41.929Z,99287.53
2023-02-03T04:40:09.524Z,99237.97
2023-02-03T04:42:40.209Z,99316.97
2023-02-03T04:45:08.695Z,99288.56
2023-02-03T04:47:36.576Z,99320.47
2023-02-03T04:50:03.397Z,99325.09
2023-02-03T04:52:29.835Z,99316.00
2023-02-03T04:54:56.334Z,99306.72
2023-02-03T04:57:22.781Z,99316.00
2023-02-03T04:59:49.321Z,99313.03
2023-02-03T05:02:15.889Z,99304.44
2023-02-03T05:04:42.308Z,99285.91
2023-02-03T05:07:09.659Z,99283.06
2023-02-03T05:09:36.210Z,99292.19
2023-02-03T05:12:02.693Z,99294.16
2023-02-03T05:14:29.145Z,99280.59
2023-02-03T05:16:55.619Z,99296.16
2023-02-03T05:19:22.070Z,99293.47
2023-02-03T05:21:48.571Z,99289.19
2023-02-03T05:24:15.001Z,99255.44
2023-02-03T05:26:41.422Z,99273.00
2023-02-03T05:29:07.900Z,99264.03
2023-02-03T05:31:35.069Z,99277.25
2023-02-03T05:34:01.571Z,99305.06
2023-02-03T05:36:27.989Z,99293.16
2023-02-03T05:38:54.467Z,99272.78
2023-02-03T05:41:39.729Z,99251.50
2023-02-03T05:44:06.998Z,99269.69
2023-02-03T05:46:33.413Z,99285.53
2023-02-03T05:48:59.861Z,99296.44
2023-02-03T05:51:26.353Z,99286.53
2023-02-03T05:53:53.721Z,99284.03
2023-02-03T05:56:20.189Z,99280.31
2023-02-03T05:58:46.688Z,99300.66
2023-02-03T06:01:13.099Z,99299.69
2023-02-03T06:03:39.890Z,99303.00
2023-02-03T06:06:06.435Z,99287.72
2023-02-03T06:08:32.859Z,99292.16
2023-02-03T06:11:00.694Z,99292.03
2023-02-03T06:13:27.257Z,99263.50
2023-02-03T06:15:54.393Z,99289.06
2023-02-03T06:18:21.102Z,99258.41
2023-02-03T06:20:47.590Z,99295.88
2023-02-03T06:23:14.026Z,99288.47
2023-02-03T06:25:40.431Z,99273.09
2023-02-03T06:28:06.896Z,99268.28
2023-02-03T06:30:34.108Z,99240.31
2023-02-03T06:33:00.828Z,99240.34
2023-02-03T06:35:27.332Z,99264.22
2023-02-03T06:37:53.839Z,99273.22
2023-02-03T06:40:20.572Z,99272.56
2023-02-03T06:42:48.196Z,99258.00
2023-02-03T06:45:15.340Z,99256.69
2023-02-03T06:47:42.731Z,99253.91
2023-02-03T06:50:11.408Z,99255.41
2023-02-03T06:52:39.015Z,99230.97
2023-02-03T06:55:06.486Z,99265.66
2023-02-03T06:57:33.387Z,99264.34
2023-02-03T07:00:00.010Z,99264.84
2023-02-03T07:02:26.490Z,99267.00
2023-02-03T07:04:52.874Z,99268.34
2023-02-03T07:10:37.037Z,99272.97
2023-02-03T07:13:06.101Z,99287.00
2023-02-03T07:15:32.800Z,99297.13
2023-02-03T07:17:59.775Z,99306.91
2023-02-03T07:20:28.969Z,99307.88
2023-02-03T07:22:57.259Z,99310.31
2023-02-03T07:25:25.341Z,99317.97
2023-02-03T07:27:52.235Z,99326.91
2023-02-03T07:30:18.908Z,99334.16
2023-02-03T07:32:53.077Z,99320.97
2023-02-03T07:35:20.419Z,99315.16
2023-02-03T07:37:46.968Z,99329.56
2023-02-03T07:40:14.441Z,99341.31
2023-02-03T07:42:46.183Z,99338.81
2023-02-03T07:45:14.857Z,99347.41
2023-02-03T07:47:42.603Z,99343.78
2023-02-03T07:50:11.170Z,99334.84
2023-02-03T07:52:38.170Z,99328.22
2023-02-03T07:55:05.303Z,99329.56
2023-02-03T07:57:32.884Z,99333.19
2023-02-03T07:59:59.298Z,99339.47
2023-02-03T08:02:26.206Z,99331.38
2023-02-03T08:04:52.982Z,99329.69
2023-02-03T08:07:19.444Z,99353.06
2023-02-03T08:09:45.925Z,99341.97
2023-02-03T08:12:12.444Z,99340.00
2023-02-03T08:14:39.064Z,99334.16
2023-02-03T08:17:05.484Z,99331.53
2023-02-03T08:19:31.929Z,99326.22
2023-02-03T08:21:59.550Z,99341.78
2023-02-03T08:24:26.213Z,99337.97
2023-02-03T08:26:53.053Z,99271.38
2023-02-03T08:29:19.898Z,99332.84
2023-02-03T08:31:46.502Z,99350.88
2023-02-03T08:34:13.811Z,99341.81
2023-02-03T08:36:40.217Z,99352.41
2023-02-03T08:39:07.057Z,99354.06
2023-02-03T08:41:34.274Z,99345.75
2023-02-03T08:44:01.398Z,99345.41
2023-02-03T08:46:28.549Z,99291.50
2023-02-03T08:48:57.369Z,99342.94
2023-02-03T08:51:24.622Z,99342.44
2023-02-03T08:53:51.110Z,99347.06
2023-02-03T08:56:17.946Z,99339.78
2023-02-03T08:58:44.369Z,99344.09
2023-02-03T09:01:13.902Z,99332.81
2023-02-03T09:03:41.187Z,99338.13
2023-02-03T09:06:09.289Z,99331.50
2023-02-03T09:08:35.833Z,99323.88
2023-02-03T09:11:02.287Z,99327.81
2023-02-03T09:13:29.047Z,99335.31
2023-02-03T09:15:55.459Z,99336.44
2023-02-03T09:18:21.887Z,99345.72
2023-02-03T09:20:48.353Z,99333.84
2023-02-03T09:23:15.150Z,99343.41
2023-02-03T09:25:43.721Z,99339.44
2023-02-03T09:28:12.494Z,99326.84
2023-02-03T09:30:39.093Z,99318.25
2023-02-03T09:33:05.633Z,99319.88
2023-02-03T09:35:32.054Z,99309.63
2023-02-03T09:37:59.651Z,99331.09
2023-02-03T09:40:31.143Z,99313.91
2023-02-03T09:43:46.347Z,99333.41
2023-02-03T09:46:16.433Z,99332.59
2023-02-03T09:48:53.068Z,99328.78
2023-02-03T09:51:27.788Z,99339.06
2023-02-03T09:54:04.185Z,99330.47
2023-02-03T09:56:34.624Z,99325.69
2023-02-03T09:59:01.566Z,99298.06
2023-02-03T10:01:55.410Z,99306.63
2023-02-03T10:04:37.861Z,99303.78
2023-02-03T10:07:25.201Z,99303.94
2023-02-03T10:10:03.291Z,99294.53
2023-02-03T10:13:01.219Z,99312.00
2023-02-03T10:15:42.793Z,99307.19
2023-02-03T10:18:16.727Z,99315.81
2023-02-03T10:20:47.755Z,99307.34
2023-02-03T10:23:23.276Z,99312.19
2023-02-03T10:25:57.831Z,99313.28
2023-02-03T10:28:31.332Z,99310.81
2023-02-03T10:31:01.029Z,99318.78
2023-02-03T10:33:31.364Z,99310.81
2023-02-03T10:36:31.760Z,99318.25
2023-02-03T10:39:27.778Z,99310.84
2023-02-03T10:41:54.673Z,99321.63
2023-02-03T10:44:24.369Z,99306.53
2023-02-03T10:46:51.363Z,99290.16
2023-02-03T10:49:19.066Z,99279.41
2023-02-03T10:51:50.464Z,99302.22
2023-02-03T10:54:47.392Z,99293.09
2023-02-03T10:57:16.055Z,99272.34
2023-02-03T10:59:45.585Z,99293.22
2023-02-03T11:02:31.114Z,99277.63
2023-02-03T11:05:21.021Z,99276.31
2023-02-03T11:07:48.199Z,99264.56
2023-02-03T11:10:37.759Z,99260.16
2023-02-03T11:13:17.177Z,99248.69
2023-02-03T11:16:10.786Z,99263.31
2023-02-03T11:18:52.078Z,99248.91
2023-02-03T11:21:37.066Z,99252.34
2023-02-03T11:24:09.394Z,99265.78
2023-02-03T11:26:42.153Z,99246.22
2023-02-03T11:29:18.412Z,99201.06
2023-02-03T11:31:50.182Z,99242.44
2023-02-03T11:34:24.064Z,99201.94
2023-02-03T11:36:50.614Z,99249.38
2023-02-03T11:39:25.758Z,99267.06
2023-02-03T11:41:53.209Z,99271.34
2023-02-03T11:44:26.200Z,99269.06
2023-02-03T11:47:01.506Z,99281.81
2023-02-03T11:50:04.915Z,99305.00
2023-02-03T11:52:37.168Z,99312.94
2023-02-03T11:55:25.549Z,99315.47
2023-02-03T11:58:14.033Z,99310.84
2023-02-03T12:01:05.405Z,99316.47
2023-02-03T12:03:56.511Z,99322.31
2023-02-03T12:07:01.309Z,99327.25
2023-02-03T12:09:46.692Z,99321.00
2023-02-03T12:12:15.833Z,99336.75
2023-02-03T12:15:03.744Z,99330.16
2023-02-03T12:17:50.506Z,99324.16
2023-02-03T12:20:52.732Z,99304.28
2023-02-03T12:23:31.243Z,99310.88
2023-02-03T12:26:20.622Z,99293.03
2023-02-03T12:29:13.214Z,99269.72
2023-02-03T12:31:46.609Z,99250.53
2023-02-03T12:34:17.845Z,99262.75
2023-02-03T12:37:03.071Z,99269.84
2023-02-03T12:39:34.387Z,99261.22
2023-02-03T12:42:07.536Z,99257.50
2023-02-03T12:44:57.317Z,99264.00
2023-02-03T12:47:30.233Z,99255.84
2023-02-03T12:50:03.440Z,99241.56
2023-02-03T12:52:42.482Z,99259.69
2023-02-03T12:55:09.051Z,99245.63
2023-02-03T12:57:45.106Z,99239.16
2023-02-03T13:00:36.860Z,99231.09
2023-02-03T13:03:16.429Z,99247.78
2023-02-03T13:06:01.277Z,99234.75
2023-02-03T13:09:13.316Z,99224.78
2023-02-03T13:11:46.545Z,99214.22
2023-02-03T13:14:23.081Z,99222.47
2023-02-03T13:17:01.655Z,99222.19
2023-02-03T13:19:40.803Z,99220.97
2023-02-03T13:22:15.430Z,99207.84
2023-02-03T13:24:48.780Z,99212.84
2023-02-03T13:27:49.017Z,99204.09
2023-02-03T13:30:30.024Z,99191.53
2023-02-03T13:33:06.604Z,99192.97
2023-02-03T13:35:44.260Z,99196.59
2023-02-03T13:38:46.306Z,99199.25
2023-02-03T13:41:28.108Z,99190.41
2023-02-03T13:43:57.223Z,99183.50
2023-02-03T13:46:31.210Z,99190.34
2023-02-03T13:49:01.257Z,99194.16
2023-02-03T13:51:34.641Z,99187.13
2023-02-03T13:54:08.797Z,99178.31
2023-02-03T13:56:35.721Z,99173.38
2023-02-03T13:59:05.981Z,99148.25
2023-02-03T14:01:38.942Z,99175.66
2023-02-03T14:04:23.529Z,99167.72
2023-02-03T14:06:52.342Z,99164.56
2023-02-03T14:09:24.172Z,99181.97
2023-02-03T14:11:53.384Z,99183.47
2023-02-03T14:14:22.409Z,99199.16
2023-02-03T14:16:54.535Z,99212.09
2023-02-03T14:19:30.216Z,99231.16
2023-02-03T14:22:06.840Z,99210.06
2023-02-03T14:24:38.350Z,99200.34
2023-02-03T14:27:21.995Z,99212.25
2023-02-03T14:30:09.442Z,99239.09
2023-02-03T14:32:58.361Z,99224.81
2023-02-03T14:35:40.130Z,99222.47
2023-02-03T14:38:10.723Z,99205.94
2023-02-03T14:40:57.717Z,99208.31
2023-02-03T14:43:34.709Z,99209.38
2023-02-03T14:46:35.376Z,99218.53
2023-02-03T14:49:08.113Z,99230.31
2023-02-03T14:51:56.594Z,99240.38
2023-02-03T14:54:51.555Z,99240.72
2023-02-03T14:57:58.488Z,99237.09
2023-02-03T15:00:31.604Z,99239.22
2023-02-03T15:03:08.848Z,99243.53
2023-02-03T15:05:50.209Z,99249.63
2023-02-03T15:08:44.152Z,99264.53
2023-02-03T15:11:24.529Z,99254.66
2023-02-03T15:13:51.609Z,99255.63
2023-02-03T15:16:23.611Z,99251.47
2023-02-03T15:19:03.112Z,99260.94
2023-02-03T15:21:29.558Z,99260.53
2023-02-03T15:23:56.061Z,99270.38
2023-02-03T15:26:28.643Z,99272.56
2023-02-03T15:29:02.490Z,99276.31
2023-02-03T15:31:32.366Z,99270.34
2023-02-03T15:34:04.434Z,99238.75
2023-02-03T15:36:46.955Z,99251.63
2023-02-03T15:39:39.242Z,99266.22
2023-02-03T15:42:13.114Z,99265.84
2023-02-03T15:44:44.193Z,99264.53
2023-02-03T15:47:30.116Z,99215.00
2023-02-03T15:50:05.876Z,99267.22
2023-02-03T15:52:36.969Z,99272.53
2023-02-03T15:55:16.987Z,99278.13
2023-02-03T15:57:47.622Z,99289.19
2023-02-03T16:00:32.035Z,99296.84
2023-02-03T16:03:00.233Z,99301.31
2023-02-03T16:05:30.874Z,99297.94
2023-02-03T16:08:17.938Z,99286.69
2023-02-03T16:10:44.519Z,99279.09
2023-02-03T16:13:25.268Z,99287.75
2023-02-03T16:16:03.573Z,99288.06
2023-02-03T16:18:30.080Z,99294.63
2023-02-03T16:20:56.916Z,99295.78
2023-02-03T16:23:27.403Z,99289.31
2023-02-03T16:26:04.559Z,99293.94
2023-02-03T16:28:49.712Z,99260.41
2023-02-03T16:31:38.131Z,99278.22
2023-02-03T16:34:35.722Z,99281.94
2023-02-03T16:37:29.785Z,99285.06
2023-02-03T16:40:14.778Z,99277.44
2023-02-03T16:43:00.084Z,99278.09
2023-02-03T16:45:45.200Z,99276.25
2023-02-03T16:48:31.314Z,99280.09
2023-02-03T16:51:13.399Z,99281.94
2023-02-03T16:53:40.461Z,99291.16
2023-02-03T16:56:07.215Z,99294.00
2023-02-03T16:58:33.721Z,99296.13
2023-02-03T17:01:03.705Z,99303.09
2023-02-03T17:03:32.710Z,99302.94
2023-02-03T17:06:04.579Z,99314.53
2023-02-03T17:08:31.126Z,99325.44
2023-02-03T17:11:06.445Z,99324.13
2023-02-03T17:13:33.557Z,99331.53
2023-02-03T17:16:00.336Z,99343.16
2023-02-03T17:18:27.241Z,99347.00
2023-02-03T17:20:55.067Z,99344.16
2023-02-03T17:23:23.489Z,99345.63
2023-02-03T17:25:50.516Z,99335.53
2023-02-03T17:28:17.680Z,99344.00
2023-02-03T17:30:44.370Z,99342.00
2023-02-03T17:33:12.247Z,99347.00
2023-02-03T17:35:41.114Z,99345.50
2023-02-03T17:38:08.419Z,99342.00
2023-02-03T17:54:16.570Z,99358.09
2023-02-03T17:56:47.323Z,99357.59
2023-02-03T17:59:14.330Z,99359.41
2023-02-03T18:01:41.400Z,99356.25
2023-02-03T18:04:11.620Z,99341.38
2023-02-03T18:06:38.442Z,99365.88
2023-02-03T18:09:07.099Z,99364.53
2023-02-03T18:11:35.281Z,99358.56
2023-02-03T18:14:02.325Z,99352.09
2023-02-03T18:16:34.764Z,99363.19
2023-02-03T18:19:04.482Z,99341.69
2023-02-03T18:21:32.391Z,99287.47
2023-02-03T18:24:02.015Z,99345.97
2023-02-03T18:26:32.429Z,99362.50
2023-02-03T18:28:58.920Z,99349.31
2023-02-03T18:31:25.480Z,99319.75
2023-02-03T18:33:52.450Z,99356.56
2023-02-03T18:36:19.677Z,99362.38
2023-02-03T18:38:48.053Z,99363.34
2023-02-03T18:41:21.154Z,99360.56
2023-02-03T18:43:49.256Z,99367.81
2023-02-03T18:46:21.635Z,99333.44
2023-02-03T18:48:48.454Z,99361.53
2023-02-03T18:51:16.663Z,99368.66
2023-02-03T18:53:45.018Z,99369.81
2023-02-03T18:56:25.145Z,99328.47
2023-02-03T18:58:51.807Z,99368.84
2023-02-03T19:01:28.057Z,99362.19
2023-02-03T19:03:55.986Z,99368.97
2023-02-03T19:06:24.063Z,99368.19
2023-02-03T19:08:51.215Z,99377.44
2023-02-03T19:11:17.694Z,99381.75
2023-02-03T19:13:44.501Z,99368.78
2023-02-03T19:16:13.385Z,99375.09
2023-02-03T19:18:41.063Z,99385.31
2023-02-03T19:21:07.589Z,99393.88
2023-02-03T19:23:34.072Z,99389.69
2023-02-03T19:26:00.592Z,99398.53
2023-02-03T19:28:30.955Z,99403.97
2023-02-03T19:31:09.173Z,99399.94
2023-02-03T19:33:36.748Z,99411.13
2023-02-03T19:36:04.556Z,99413.13
2023-02-03T19:38:31.328Z,99403.03
2023-02-03T19:40:57.922Z,99410.06
2023-02-03T19:43:24.949Z,99412.94
2023-02-03T19:45:51.740Z,99418.13
2023-02-03T19:48:18.300Z,99408.19
2023-02-03T19:50:47.305Z,99416.47
2023-02-03T19:53:15.339Z,99417.16
2023-02-03T19:55:43.331Z,99418.47
2023-02-03T19:58:10.388Z,99427.47
2023-02-03T20:00:36.863Z,99426.09
2023-02-03T20:03:03.635Z,99418.81
2023-02-03T20:05:31.185Z,99405.41
2023-02-03T20:07:57.771Z,99425.09
2023-02-03T20:10:26.276Z,99422.91
2023-02-03T20:12:54.283Z,99396.69
2023-02-03T20:15:21.566Z,99398.97
2023-02-03T20:17:48.127Z,99411.88
2023-02-03T20:20:16.056Z,99424.09
2023-02-03T20:22:42.692Z,99418.03
2023-02-03T20:25:10.253Z,99387.22
2023-02-03T20:27:36.860Z,99413.56
2023-02-03T20:30:04.077Z,99421.63
2023-02-03T20:32:31.128Z,99395.00
2023-02-03T20:34:57.754Z,99405.59
2023-02-03T20:37:24.426Z,99430.03
2023-02-03T20:39:50.949Z,99432.75
2023-02-03T20:42:17.959Z,99421.75
2023-02-03T20:44:44.992Z,99407.56
2023-02-03T20:47:13.360Z,99416.66
2023-02-03T20:49:40.079Z,99428.44
2023-02-03T20:52:18.271Z,99411.22
2023-02-03T20:54:45.204Z,99426.94
2023-02-03T20:57:17.589Z,99430.75
2023-02-03T20:59:45.018Z,99437.03
2023-02-03T21:02:31.824Z,99394.16
2023-02-03T21:04:59.760Z,99427.78
2023-02-03T21:07:30.504Z,99440.69
2023-02-03T21:09:58.824Z,99440.03
2023-02-03T21:12:28.066Z,99438.38
2023-02-03T21:14:55.089Z,99399.50
2023-02-03T21:17:26.682Z,99446.00
2023-02-03T21:19:54.834Z,99433.72
2023-02-03T21:22:26.510Z,99396.50
2023-02-03T21:25:00.049Z,99440.19
2023-02-03T21:27:31.960Z,99434.69
2023-02-03T21:30:00.847Z,99443.31
2023-02-03T21:32:38.366Z,99437.88
2023-02-03T21:35:24.081Z,99418.53
2023-02-03T21:37:56.940Z,99459.91
2023-02-03T21:40:26.390Z,99456.25
2023-02-03T21:42:53.981Z,99465.69
2023-02-03T21:45:35.649Z,99452.28
2023-02-03T21:48:23.961Z,99458.75
2023-02-03T21:50:51.128Z,99466.53
2023-02-03T21:53:27.998Z,99461.88
2023-02-03T21:55:55.071Z,99425.81
2023-02-03T21:58:30.126Z,99470.31
2023-02-03T22:00:58.834Z,99437.03
2023-02-03T22:03:27.100Z,99465.34
2023-02-03T22:06:34.779Z,99464.53
2023-02-03T22:09:01.286Z,99452.97
2023-02-03T22:11:29.513Z,99400.53
2023-02-03T22:13:57.262Z,99461.38
2023-02-03T22:16:25.270Z,99461.19
2023-02-03T22:18:52.152Z,99458.72
2023-02-03T22:21:18.873Z,99464.19
2023-02-03T22:23:45.613Z,99462.50
2023-02-03T22:26:13.193Z,99457.91
2023-02-03T22:28:40.634Z,99436.38
2023-02-03T22:31:08.583Z,99364.59
2023-02-03T22:33:35.769Z,99462.03
2023-02-03T22:36:03.328Z,99472.47
2023-02-03T22:38:31.062Z,99464.88
2023-02-03T22:40:57.517Z,99482.44
2023-02-03T22:43:24.470Z,99490.06
2023-02-03T22:45:51.268Z,99480.16
2023-02-03T22:48:17.736Z,99484.94
2023-02-03T22:50:44.168Z,99484.13
2023-02-03T22:53:10.660Z,99499.38
2023-02-03T22:55:37.872Z,99485.78
2023-02-03T22:58:05.272Z,99492.06
2023-02-03T23:00:32.605Z,99515.28
2023-02-03T23:02:59.628Z,99507.78
2023-02-03T23:05:26.666Z,99511.78
2023-02-03T23:07:53.777Z,99522.88
2023-02-03T23:10:23.522Z,99508.63
2023-02-03T23:12:50.244Z,99509.59
2023-02-03T23:15:18.181Z,99505.97
2023-02-03T23:17:45.319Z,99519.09
2023-02-03T23:20:13.465Z,99514.94
2023-02-03T23:22:39.905Z,99524.53
2023-02-03T23:25:06.808Z,99522.91
2023-02-03T23:27:33.225Z,99526.03
2023-02-03T23:29:59.704Z,99511.78
2023-02-03T23:32:26.148Z,99458.66
2023-02-03T23:35:11.409Z,99507.44
2023-02-03T23:37:37.892Z,99507.63
2023-02-03T23:40:06.159Z,99512.09
2023-02-03T23:42:32.658Z,99512.94
2023-02-03T23:44:59.183Z,99513.75
2023-02-03T23:47:25.673Z,99521.22
2023-02-03T23:49:52.067Z,99512.25
2023-02-03T23:52:18.529Z,99496.34
2023-02-03T23:54:45.203Z,99511.91
2023-02-03T23:57:11.698Z,99518.03
2023-02-03T23:59:38.146Z,99501.19
